Time;durP1;ratioP1;P1;durP2;ratioP2;P2;SDS_P1;SDS_P2;PMS_P1;PMS_P2;Temp;Humidity;BMP_temperature;BMP_pressure;BME280_temperature;BME280_humidity;BME280_pressure;Samples;Min_cycle;Max_cycle;Signal;HPM_P1;HPM_P2
2022/05/25 00:02:13;;;;;;;0.10;0.10;;;10.90;99.90;;;;;;5026044;28;20042;-67
2022/05/25 00:04:39;;;;;;;0.10;0.10;;;10.80;99.90;;;;;;5026555;28;20064;-67
2022/05/25 00:07:05;;;;;;;0.20;0.20;;;10.80;99.90;;;;;;5015703;28;20060;-67
2022/05/25 00:09:31;;;;;;;0.10;0.10;;;10.90;99.90;;;;;;5022074;28;20045;-67
2022/05/25 00:11:56;;;;;;;0.38;0.38;;;10.90;99.90;;;;;;5019889;28;20050;-67
2022/05/25 00:14:22;;;;;;;0.47;0.47;;;11.00;99.90;;;;;;5020161;28;20366;-67
2022/05/25 00:16:48;;;;;;;0.20;0.20;;;11.10;99.90;;;;;;5026273;28;20049;-67
2022/05/25 00:21:57;;;;;;;0.63;0.63;;;11.20;99.90;;;;;;5022064;28;20042;-68
2022/05/25 00:24:23;;;;;;;0.00;0.00;;;11.20;99.90;;;;;;5012969;28;20045;-67
2022/05/25 00:26:48;;;;;;;0.10;0.10;;;11.20;99.90;;;;;;5026065;28;20056;-67
2022/05/25 00:29:14;;;;;;;0.28;0.28;;;11.20;99.90;;;;;;5016889;28;20047;-67
2022/05/25 00:31:40;;;;;;;0.20;0.20;;;11.20;99.90;;;;;;5019124;28;20033;-67
2022/05/25 00:34:07;;;;;;;0.05;0.05;;;11.20;99.90;;;;;;5015370;28;20048;-68
2022/05/25 00:36:32;;;;;;;0.10;0.10;;;11.30;99.90;;;;;;5025653;28;20042;-68
2022/05/25 00:38:58;;;;;;;0.10;0.10;;;11.30;99.90;;;;;;5011092;28;20053;-67
2022/05/25 00:41:26;;;;;;;0.88;0.82;;;11.20;99.90;;;;;;5014894;28;20042;-68
2022/05/25 00:43:52;;;;;;;1.58;1.23;;;11.20;99.90;;;;;;5024146;28;20041;-67
2022/05/25 00:46:20;;;;;;;0.20;0.20;;;11.10;99.90;;;;;;5021874;28;20053;-67
2022/05/25 00:48:54;;;;;;;0.10;0.10;;;11.10;99.90;;;;;;5026582;28;20041;-67
2022/05/25 00:51:46;;;;;;;0.10;0.10;;;11.20;99.90;;;;;;5016687;28;20052;-67
2022/05/25 00:54:17;;;;;;;0.05;0.05;;;11.00;99.90;;;;;;5017423;28;20037;-67
2022/05/25 00:56:45;;;;;;;0.10;0.10;;;11.00;99.90;;;;;;5026345;28;20061;-68
2022/05/25 00:59:16;;;;;;;0.10;0.10;;;10.90;99.90;;;;;;5013263;28;20045;-68
2022/05/25 01:01:42;;;;;;;0.10;0.10;;;10.90;99.90;;;;;;5020936;28;20103;-68
2022/05/25 01:04:09;;;;;;;0.20;0.20;;;10.90;99.90;;;;;;5019481;28;20054;-67
2022/05/25 01:07:02;;;;;;;0.10;0.10;;;10.80;99.90;;;;;;5010808;28;20046;-68
2022/05/25 01:09:43;;;;;;;0.13;0.13;;;10.80;99.90;;;;;;5027289;28;20048;-67
2022/05/25 01:12:32;;;;;;;0.35;0.35;;;10.70;99.90;;;;;;5021066;28;20048;-68
2022/05/25 01:15:16;;;;;;;0.10;0.10;;;10.80;99.90;;;;;;5013664;28;20176;-67
2022/05/25 01:18:08;;;;;;;0.10;0.10;;;10.80;99.90;;;;;;5018524;28;20058;-68
2022/05/25 01:20:41;;;;;;;0.00;0.00;;;10.80;99.90;;;;;;5025050;28;20052;-68
2022/05/25 01:23:31;;;;;;;0.20;0.20;;;10.70;99.90;;;;;;5014931;28;20057;-67
2022/05/25 01:26:16;;;;;;;0.10;0.10;;;10.80;99.90;;;;;;5029064;28;20056;-67
2022/05/25 01:29:05;;;;;;;0.10;0.10;;;10.70;99.90;;;;;;5019591;28;20038;-67
2022/05/25 01:31:52;;;;;;;0.10;0.10;;;10.70;99.90;;;;;;5025707;28;20120;-68
2022/05/25 01:34:54;;;;;;;0.98;0.65;;;10.70;99.90;;;;;;5028482;28;20057;-68
2022/05/25 01:37:54;;;;;;;0.10;0.10;;;10.70;99.90;;;;;;5028006;28;20499;-67
2022/05/25 01:40:32;;;;;;;0.10;0.10;;;10.70;99.90;;;;;;5028886;28;20042;-67
2022/05/25 01:43:04;;;;;;;0.28;0.28;;;10.70;99.90;;;;;;5028603;28;20037;-68
2022/05/25 01:45:33;;;;;;;0.30;0.30;;;10.80;99.90;;;;;;5029039;28;20160;-67
2022/05/25 01:48:05;;;;;;;0.15;0.15;;;10.80;99.90;;;;;;5030958;28;20037;-67
2022/05/25 01:50:42;;;;;;;0.10;0.10;;;10.70;99.90;;;;;;5027962;28;20046;-67
2022/05/25 01:53:11;;;;;;;0.10;0.10;;;10.70;99.90;;;;;;5026451;28;20046;-67
2022/05/25 01:55:46;;;;;;;0.03;0.03;;;10.80;99.90;;;;;;5020663;28;20468;-67
2022/05/25 01:58:16;;;;;;;0.10;0.10;;;10.80;99.90;;;;;;5022155;28;20052;-67
2022/05/25 02:00:44;;;;;;;0.43;0.43;;;10.80;99.90;;;;;;5029921;28;20046;-68
2022/05/25 02:06:01;;;;;;;0.30;0.30;;;10.80;99.90;;;;;;5016853;28;20045;-67
2022/05/25 02:08:37;;;;;;;0.20;0.20;;;10.80;99.90;;;;;;5024988;28;20042;-68
2022/05/25 02:11:31;;;;;;;0.50;0.50;;;10.80;99.90;;;;;;5016795;28;20077;-67
2022/05/25 02:14:40;;;;;;;0.00;0.00;;;10.90;99.90;;;;;;5028401;28;20045;-67
2022/05/25 02:17:24;;;;;;;0.00;0.00;;;10.90;99.90;;;;;;5022226;28;20055;-67
2022/05/25 02:19:58;;;;;;;0.52;0.40;;;10.90;99.90;;;;;;5019199;28;20125;-67
2022/05/25 02:22:37;;;;;;;0.10;0.10;;;11.00;99.90;;;;;;5029171;28;20053;-67
2022/05/25 02:25:06;;;;;;;0.10;0.10;;;10.90;99.90;;;;;;5022470;28;20042;-67
2022/05/25 02:27:44;;;;;;;0.10;0.10;;;11.00;99.90;;;;;;5016712;28;20513;-67
2022/05/25 02:30:17;;;;;;;3.72;0.38;;;11.00;99.90;;;;;;5012884;28;20674;-68
2022/05/25 02:32:59;;;;;;;0.00;0.00;;;11.10;99.90;;;;;;5026150;28;20048;-67
2022/05/25 02:35:26;;;;;;;0.32;0.32;;;11.10;99.90;;;;;;5012307;28;20049;-68
2022/05/25 02:37:56;;;;;;;2.03;0.75;;;11.10;99.90;;;;;;5019510;28;20116;-67
2022/05/25 02:40:21;;;;;;;0.25;0.25;;;11.10;99.90;;;;;;5028159;28;20049;-68
2022/05/25 02:42:47;;;;;;;0.00;0.00;;;11.00;99.90;;;;;;5030523;28;20037;-67
2022/05/25 02:45:13;;;;;;;0.40;0.38;;;11.10;99.90;;;;;;5016025;28;20565;-67
2022/05/25 02:47:39;;;;;;;1.23;1.23;;;11.00;99.90;;;;;;5023721;28;20129;-67
2022/05/25 02:50:05;;;;;;;0.20;0.20;;;11.00;99.90;;;;;;5010528;28;20445;-67
2022/05/25 02:52:30;;;;;;;0.10;0.10;;;11.00;99.90;;;;;;5010723;28;20132;-67
2022/05/25 02:54:56;;;;;;;0.35;0.35;;;11.00;99.90;;;;;;5026655;28;20128;-67
2022/05/25 02:57:22;;;;;;;0.40;0.38;;;11.00;99.90;;;;;;5013523;28;20572;-67
2022/05/25 02:59:47;;;;;;;0.10;0.10;;;10.90;99.90;;;;;;5025122;28;20057;-67
2022/05/25 03:02:13;;;;;;;0.10;0.10;;;10.90;99.90;;;;;;5019899;28;20038;-67
2022/05/25 03:04:40;;;;;;;0.10;0.10;;;10.90;99.90;;;;;;5019931;28;20057;-68
2022/05/25 03:07:06;;;;;;;0.20;0.20;;;10.90;99.90;;;;;;5018965;28;20061;-67
2022/05/25 03:09:34;;;;;;;0.10;0.10;;;10.90;99.90;;;;;;5014685;28;20065;-67
2022/05/25 03:12:02;;;;;;;2.38;0.70;;;10.90;99.90;;;;;;5027751;28;20596;-67
2022/05/25 03:14:29;;;;;;;0.00;0.00;;;11.00;99.90;;;;;;5020391;28;20049;-67
2022/05/25 03:16:54;;;;;;;0.10;0.10;;;11.00;99.90;;;;;;5024410;28;20053;-67
2022/05/25 03:19:20;;;;;;;0.10;0.10;;;10.90;99.90;;;;;;5009550;28;20045;-67
2022/05/25 03:21:46;;;;;;;0.10;0.10;;;11.00;99.90;;;;;;5018305;28;20124;-67
2022/05/25 03:24:12;;;;;;;0.82;0.82;;;11.00;99.90;;;;;;5023050;28;20049;-67
2022/05/25 03:26:38;;;;;;;0.10;0.10;;;10.90;99.90;;;;;;5025314;28;20054;-67
2022/05/25 03:29:04;;;;;;;0.20;0.20;;;10.90;99.90;;;;;;5026610;28;20390;-67
2022/05/25 03:31:29;;;;;;;0.47;0.47;;;11.00;99.90;;;;;;5023015;28;20484;-67
2022/05/25 03:33:55;;;;;;;1.08;0.73;;;10.90;99.90;;;;;;5019277;28;20402;-67
2022/05/25 03:36:20;;;;;;;0.00;0.00;;;11.00;99.90;;;;;;5026214;28;20135;-67
2022/05/25 03:38:46;;;;;;;0.10;0.10;;;11.00;99.90;;;;;;5029274;28;20432;-67
2022/05/25 03:41:11;;;;;;;0.30;0.30;;;11.00;99.90;;;;;;5013686;28;20167;-67
2022/05/25 03:43:38;;;;;;;0.10;0.10;;;11.10;99.90;;;;;;5009886;28;20038;-67
2022/05/25 03:46:04;;;;;;;0.25;0.25;;;11.00;99.90;;;;;;5016093;28;20168;-67
2022/05/25 03:48:29;;;;;;;0.00;0.00;;;11.00;99.90;;;;;;5024581;28;20128;-67
2022/05/25 03:50:55;;;;;;;0.20;0.20;;;11.00;99.90;;;;;;5013411;28;20147;-67
2022/05/25 03:53:21;;;;;;;0.00;0.00;;;11.10;99.90;;;;;;5017752;28;20048;-67
2022/05/25 03:55:47;;;;;;;1.85;0.90;;;11.00;99.90;;;;;;5016688;28;20038;-67
2022/05/25 03:58:13;;;;;;;0.10;0.10;;;11.10;99.90;;;;;;5025626;28;20366;-67
2022/05/25 04:00:38;;;;;;;0.00;0.00;;;11.10;99.90;;;;;;5025449;28;20077;-67
2022/05/25 04:03:04;;;;;;;0.00;0.00;;;11.10;99.90;;;;;;5022646;28;20413;-67
2022/05/25 04:05:32;;;;;;;0.35;0.35;;;11.10;99.90;;;;;;5016472;28;20050;-67
2022/05/25 04:07:58;;;;;;;0.10;0.10;;;11.10;99.90;;;;;;5010775;28;20045;-67
2022/05/25 04:10:25;;;;;;;0.10;0.10;;;11.20;99.90;;;;;;5023784;28;20091;-67
2022/05/25 04:12:51;;;;;;;0.10;0.10;;;11.20;99.90;;;;;;5021736;28;20046;-67
2022/05/25 04:15:23;;;;;;;0.00;0.00;;;11.20;99.90;;;;;;5014042;28;20474;-67
2022/05/25 04:17:48;;;;;;;0.63;0.63;;;11.20;99.90;;;;;;5022053;28;20649;-67
2022/05/25 04:20:16;;;;;;;0.13;0.13;;;11.20;99.90;;;;;;5025807;28;20080;-67
2022/05/25 04:22:41;;;;;;;0.00;0.00;;;11.30;99.90;;;;;;5011206;28;20095;-67
2022/05/25 04:25:10;;;;;;;0.10;0.10;;;11.30;99.90;;;;;;5023247;28;20045;-67
2022/05/25 04:27:38;;;;;;;0.00;0.00;;;11.30;99.90;;;;;;5025152;28;20081;-67
2022/05/25 04:30:06;;;;;;;0.30;0.15;;;11.30;99.90;;;;;;5025770;28;20378;-67
2022/05/25 04:32:32;;;;;;;0.00;0.00;;;11.40;99.90;;;;;;5017563;28;20041;-67
2022/05/25 04:34:58;;;;;;;0.10;0.10;;;11.40;99.90;;;;;;5022463;28;20046;-67
2022/05/25 04:40:10;;;;;;;0.43;0.43;;;11.40;99.90;;;;;;5017183;28;20046;-67
2022/05/25 04:42:35;;;;;;;0.10;0.10;;;11.50;99.90;;;;;;5023841;28;20084;-67
2022/05/25 04:45:01;;;;;;;0.10;0.10;;;11.50;99.90;;;;;;5022864;28;20145;-67
2022/05/25 04:47:33;;;;;;;0.08;0.08;;;11.60;99.90;;;;;;5018726;28;20033;-67
2022/05/25 04:50:00;;;;;;;0.00;0.00;;;11.60;99.90;;;;;;5020435;28;20116;-67
2022/05/25 04:52:27;;;;;;;0.20;0.20;;;11.60;99.90;;;;;;5018041;28;20045;-67
2022/05/25 04:54:53;;;;;;;0.10;0.10;;;11.60;99.90;;;;;;5024312;28;20057;-67
2022/05/25 04:57:23;;;;;;;0.10;0.10;;;11.70;99.90;;;;;;5025333;28;20083;-67
2022/05/25 04:59:54;;;;;;;0.20;0.20;;;11.70;99.90;;;;;;5030443;28;20042;-67
2022/05/25 05:02:20;;;;;;;0.10;0.10;;;11.80;99.90;;;;;;5014835;28;20037;-67
2022/05/25 05:04:46;;;;;;;0.10;0.10;;;11.90;99.90;;;;;;5029437;28;20148;-67
2022/05/25 05:07:13;;;;;;;0.00;0.00;;;11.90;99.90;;;;;;5018765;28;20081;-67
2022/05/25 05:09:41;;;;;;;0.00;0.00;;;12.00;99.90;;;;;;5018651;28;20110;-67
2022/05/25 05:12:08;;;;;;;0.10;0.10;;;12.00;99.90;;;;;;5029855;28;20076;-67
2022/05/25 05:14:34;;;;;;;0.10;0.10;;;12.10;99.90;;;;;;5028256;28;20124;-67
2022/05/25 05:17:02;;;;;;;0.10;0.10;;;12.10;99.90;;;;;;5020116;28;20137;-67
2022/05/25 05:19:29;;;;;;;0.10;0.10;;;12.20;99.90;;;;;;5018013;28;20045;-68
2022/05/25 05:21:57;;;;;;;0.10;0.10;;;12.20;99.90;;;;;;5026677;28;20049;-67
2022/05/25 05:24:23;;;;;;;0.00;0.00;;;12.30;99.90;;;;;;5023087;28;20025;-67
2022/05/25 05:26:49;;;;;;;0.10;0.10;;;12.30;99.90;;;;;;5027594;28;20045;-67
2022/05/25 05:29:14;;;;;;;0.20;0.20;;;12.40;99.90;;;;;;5016636;28;20095;-67
2022/05/25 05:31:40;;;;;;;0.32;0.32;;;12.40;99.90;;;;;;5021554;28;20600;-67
2022/05/25 05:34:06;;;;;;;0.10;0.10;;;12.50;99.90;;;;;;5028414;28;20132;-67
2022/05/25 05:36:36;;;;;;;0.10;0.10;;;12.60;99.90;;;;;;5016219;28;20060;-67
2022/05/25 05:39:06;;;;;;;0.00;0.00;;;12.60;99.90;;;;;;5028566;28;20049;-67
2022/05/25 05:41:38;;;;;;;0.10;0.10;;;12.70;99.90;;;;;;5029230;28;20072;-66
2022/05/25 05:44:05;;;;;;;0.00;0.00;;;12.70;99.90;;;;;;5013894;28;20383;-67
2022/05/25 05:46:31;;;;;;;2.80;0.32;;;12.80;99.90;;;;;;5025628;28;20050;-67
2022/05/25 05:48:57;;;;;;;0.00;0.00;;;12.80;99.90;;;;;;5025911;28;20556;-67
2022/05/25 05:51:23;;;;;;;0.00;0.00;;;12.90;99.90;;;;;;5022185;28;20085;-67
2022/05/25 05:53:49;;;;;;;0.10;0.10;;;13.00;99.90;;;;;;5021586;28;20049;-67
2022/05/25 05:56:15;;;;;;;0.10;0.10;;;13.00;99.90;;;;;;5027147;28;20045;-66
2022/05/25 05:58:41;;;;;;;0.20;0.20;;;13.10;99.90;;;;;;5027557;28;20045;-66
2022/05/25 06:01:07;;;;;;;0.47;0.47;;;13.10;99.90;;;;;;5020806;28;20055;-67
2022/05/25 06:03:32;;;;;;;0.10;0.10;;;13.20;99.90;;;;;;5010413;28;20448;-66
2022/05/25 06:05:59;;;;;;;0.10;0.10;;;13.20;99.90;;;;;;5025292;28;20050;-68
2022/05/25 06:08:26;;;;;;;0.10;0.10;;;13.30;99.90;;;;;;5029468;28;20048;-68
2022/05/25 06:10:52;;;;;;;0.10;0.10;;;13.30;99.90;;;;;;5028170;28;20452;-68
2022/05/25 06:13:18;;;;;;;0.28;0.28;;;13.40;99.90;;;;;;5016298;28;20461;-67
2022/05/25 06:21:17;;;;;;;0.10;0.10;;;13.60;99.90;;;;;;5028390;28;20545;-68
2022/05/25 06:23:43;;;;;;;0.10;0.10;;;13.60;99.90;;;;;;5021301;28;20133;-68
2022/05/25 06:26:08;;;;;;;5.50;0.45;;;13.70;99.90;;;;;;5019221;28;20041;-68
2022/05/25 06:28:34;;;;;;;2.72;1.00;;;13.70;99.90;;;;;;5022005;28;20045;-67
2022/05/25 06:30:59;;;;;;;0.05;0.05;;;13.70;99.90;;;;;;5010755;28;20049;-68
2022/05/25 06:33:25;;;;;;;0.10;0.10;;;13.70;99.90;;;;;;5011962;28;20184;-67
2022/05/25 06:35:51;;;;;;;21.65;1.40;;;13.80;99.90;;;;;;5021754;28;20080;-68
2022/05/25 06:38:17;;;;;;;0.10;0.10;;;13.80;99.90;;;;;;5023875;28;20049;-68
2022/05/25 06:40:42;;;;;;;0.10;0.10;;;13.90;99.90;;;;;;5026925;28;20127;-68
2022/05/25 06:43:08;;;;;;;0.30;0.30;;;14.00;99.90;;;;;;5019147;28;20540;-67
2022/05/25 06:45:34;;;;;;;0.70;0.47;;;14.00;99.90;;;;;;5015291;28;20049;-67
2022/05/25 06:48:02;;;;;;;0.10;0.10;;;14.10;99.90;;;;;;5028136;28;20045;-68
2022/05/25 06:50:28;;;;;;;0.13;0.13;;;14.10;99.90;;;;;;5022720;28;20604;-68
2022/05/25 06:52:53;;;;;;;0.20;0.20;;;14.20;99.90;;;;;;5020749;28;20080;-67
2022/05/25 06:55:19;;;;;;;0.00;0.00;;;14.30;99.90;;;;;;5028408;28;20168;-67
2022/05/25 06:57:45;;;;;;;0.00;0.00;;;14.30;99.90;;;;;;5012500;28;20042;-67
2022/05/25 07:00:11;;;;;;;0.03;0.03;;;14.30;99.90;;;;;;5014869;28;20124;-67
2022/05/25 07:02:37;;;;;;;0.57;0.57;;;14.40;99.90;;;;;;5026368;28;20053;-67
2022/05/25 07:05:03;;;;;;;0.40;0.40;;;14.40;99.90;;;;;;5022111;28;20052;-67
2022/05/25 07:07:29;;;;;;;0.00;0.00;;;14.50;99.90;;;;;;5024556;28;20080;-68
2022/05/25 07:09:57;;;;;;;0.38;0.38;;;14.60;99.90;;;;;;5025958;28;20183;-67
2022/05/25 07:12:22;;;;;;;0.03;0.03;;;14.70;99.90;;;;;;5021140;28;20620;-67
2022/05/25 07:14:48;;;;;;;0.10;0.10;;;14.70;99.90;;;;;;5025786;28;20179;-68
2022/05/25 07:17:13;;;;;;;0.10;0.10;;;14.70;99.90;;;;;;5027791;28;20125;-68
2022/05/25 07:19:39;;;;;;;7.63;0.82;;;14.80;99.90;;;;;;5021677;28;20045;-68
2022/05/25 07:22:09;;;;;;;0.10;0.10;;;14.80;99.90;;;;;;5009028;28;20042;-67
2022/05/25 07:24:35;;;;;;;12.63;1.25;;;14.80;99.90;;;;;;5018884;28;20536;-68
2022/05/25 07:27:01;;;;;;;0.10;0.10;;;14.80;99.90;;;;;;5028486;28;20152;-68
2022/05/25 07:29:26;;;;;;;1.08;0.68;;;14.90;99.90;;;;;;5015246;28;20050;-68
2022/05/25 07:32:01;;;;;;;0.15;0.15;;;14.90;99.90;;;;;;5008591;28;20045;-68
2022/05/25 07:34:30;;;;;;;0.45;0.45;;;15.00;99.90;;;;;;5011176;28;20660;-68
2022/05/25 07:37:00;;;;;;;0.52;0.52;;;15.00;99.90;;;;;;5015781;28;20088;-68
2022/05/25 07:39:32;;;;;;;0.20;0.20;;;15.00;99.90;;;;;;5021695;28;20405;-68
2022/05/25 07:42:01;;;;;;;0.10;0.10;;;15.00;99.90;;;;;;5017835;28;20168;-68
2022/05/25 07:44:42;;;;;;;0.08;0.08;;;15.10;99.90;;;;;;5026835;28;20091;-68
2022/05/25 07:47:09;;;;;;;0.17;0.17;;;15.10;99.90;;;;;;5013229;28;20053;-68
2022/05/25 07:49:34;;;;;;;0.10;0.10;;;15.20;99.90;;;;;;5007289;28;20808;-68
2022/05/25 07:52:01;;;;;;;1.13;1.08;;;15.20;99.90;;;;;;5023816;28;20044;-68
2022/05/25 07:54:27;;;;;;;0.55;0.55;;;15.30;99.90;;;;;;5021132;28;20037;-68
2022/05/25 07:56:54;;;;;;;0.10;0.10;;;15.40;99.90;;;;;;5018811;28;20098;-68
2022/05/25 07:59:19;;;;;;;0.08;0.08;;;15.50;99.90;;;;;;5028325;28;20124;-68
2022/05/25 08:07:23;;;;;;;0.22;0.22;;;15.80;99.90;;;;;;5026937;28;20061;-69
2022/05/25 08:09:54;;;;;;;0.20;0.20;;;15.70;99.90;;;;;;5013682;28;20400;-69
2022/05/25 08:12:20;;;;;;;0.88;0.82;;;15.80;99.90;;;;;;5018839;28;20096;-69
2022/05/25 08:14:46;;;;;;;0.30;0.30;;;15.90;99.90;;;;;;5024849;28;20042;-69
2022/05/25 08:17:11;;;;;;;0.47;0.47;;;15.90;99.90;;;;;;5014082;28;20397;-69
2022/05/25 08:19:38;;;;;;;0.22;0.22;;;15.80;99.90;;;;;;5024331;28;20183;-69
2022/05/25 08:22:05;;;;;;;0.10;0.10;;;15.80;99.90;;;;;;5027899;28;20041;-69
2022/05/25 08:24:31;;;;;;;0.10;0.10;;;15.70;99.90;;;;;;5022034;28;20405;-69
2022/05/25 08:26:56;;;;;;;0.05;0.05;;;15.80;99.90;;;;;;5010573;28;20045;-69
2022/05/25 08:29:25;;;;;;;0.20;0.20;;;15.90;99.90;;;;;;5008221;28;20038;-69
2022/05/25 08:31:55;;;;;;;1.23;0.52;;;15.80;99.90;;;;;;5008762;28;20046;-69
2022/05/25 08:34:25;;;;;;;0.65;0.25;;;15.80;99.90;;;;;;5007314;28;20517;-70
2022/05/25 08:36:51;;;;;;;0.10;0.10;;;15.80;99.90;;;;;;5007550;28;20046;-70
2022/05/25 08:39:17;;;;;;;0.10;0.10;;;15.80;99.90;;;;;;5008157;28;20116;-70
2022/05/25 08:41:44;;;;;;;0.22;0.22;;;15.70;99.90;;;;;;5024941;28;20132;-69
2022/05/25 08:44:11;;;;;;;0.20;0.20;;;15.80;99.90;;;;;;5027713;28;20072;-70
2022/05/25 08:46:37;;;;;;;0.03;0.03;;;15.80;99.90;;;;;;5013991;28;20042;-70
2022/05/25 08:49:07;;;;;;;0.10;0.10;;;16.00;99.90;;;;;;5010390;28;20052;-70
2022/05/25 08:51:39;;;;;;;5.07;1.40;;;16.10;99.90;;;;;;5006517;28;20037;-69
2022/05/25 08:54:05;;;;;;;0.10;0.10;;;16.10;99.90;;;;;;5010074;28;20050;-70
2022/05/25 08:56:38;;;;;;;0.10;0.10;;;16.10;99.90;;;;;;5018901;28;20057;-70
2022/05/25 08:59:12;;;;;;;0.20;0.20;;;16.10;99.90;;;;;;5025011;28;20057;-70
2022/05/25 09:01:42;;;;;;;0.15;0.15;;;16.00;99.90;;;;;;5028202;28;20143;-70
2022/05/25 09:04:35;;;;;;;0.30;0.30;;;16.00;99.90;;;;;;5026033;28;20445;-69
2022/05/25 09:07:13;;;;;;;0.30;0.30;;;16.00;99.90;;;;;;5014491;28;20058;-70
2022/05/25 09:09:47;;;;;;;0.32;0.15;;;16.00;99.90;;;;;;5013757;28;20050;-70
2022/05/25 09:12:22;;;;;;;0.00;0.00;;;16.00;99.90;;;;;;5025355;28;20115;-71
2022/05/25 09:15:05;;;;;;;2.83;0.68;;;16.00;99.90;;;;;;5019553;28;20042;-70
2022/05/25 09:17:50;;;;;;;0.00;0.00;;;16.20;99.90;;;;;;5016646;28;20423;-70
2022/05/25 09:20:23;;;;;;;1.80;0.65;;;16.40;99.90;;;;;;5025853;28;20559;-70
2022/05/25 09:22:49;;;;;;;0.10;0.10;;;16.60;99.90;;;;;;5019341;28;20392;-70
2022/05/25 09:25:16;;;;;;;0.40;0.40;;;16.60;99.90;;;;;;5022682;28;20091;-71
2022/05/25 09:27:52;;;;;;;0.00;0.00;;;16.80;99.90;;;;;;5025169;28;20049;-71
2022/05/25 09:30:18;;;;;;;0.00;0.00;;;16.80;99.90;;;;;;5013092;28;20046;-71
2022/05/25 09:32:51;;;;;;;0.10;0.10;;;16.80;99.90;;;;;;5012238;28;20145;-71
2022/05/25 09:35:26;;;;;;;0.13;0.13;;;16.70;99.90;;;;;;5018914;28;20058;-74
2022/05/25 09:38:02;;;;;;;0.22;0.22;;;16.80;99.90;;;;;;5008360;28;20054;-71
2022/05/25 09:40:38;;;;;;;0.20;0.20;;;16.70;99.90;;;;;;5012439;28;20180;-71
2022/05/25 09:43:06;;;;;;;0.10;0.10;;;16.60;99.90;;;;;;5020216;28;20053;-71
2022/05/25 09:45:48;;;;;;;0.22;0.22;;;16.40;99.90;;;;;;5029468;28;20049;-71
2022/05/25 09:48:14;;;;;;;0.10;0.10;;;16.40;99.90;;;;;;5018226;28;20129;-70
2022/05/25 09:50:44;;;;;;;0.32;0.32;;;16.80;99.90;;;;;;5013648;28;20061;-72
2022/05/25 09:53:14;;;;;;;0.20;0.20;;;17.30;99.90;;;;;;5011295;28;20134;-70
2022/05/25 09:55:44;;;;;;;0.20;0.20;;;17.50;99.90;;;;;;5009680;28;20060;-71
2022/05/25 09:58:39;;;;;;;1.15;0.50;;;17.40;99.90;;;;;;5023074;28;20037;-71
2022/05/25 10:01:30;;;;;;;0.10;0.10;;;17.20;99.90;;;;;;5030146;28;20068;-71
2022/05/25 10:03:56;;;;;;;0.20;0.20;;;16.90;99.90;;;;;;5016755;28;20061;-71
2022/05/25 10:06:24;;;;;;;0.15;0.15;;;16.60;99.90;;;;;;5029179;28;20045;-71
2022/05/25 10:09:17;;;;;;;0.10;0.10;;;16.40;99.90;;;;;;5023495;28;20037;-71
2022/05/25 10:12:18;;;;;;;0.28;0.28;;;16.30;99.90;;;;;;5013832;28;20096;-69
2022/05/25 10:14:58;;;;;;;0.10;0.10;;;15.90;99.90;;;;;;5019162;28;20053;-68
2022/05/25 10:17:46;;;;;;;0.20;0.20;;;15.50;99.90;;;;;;5025705;28;20037;-70
2022/05/25 10:20:30;;;;;;;0.10;0.10;;;15.30;99.90;;;;;;5031042;28;20051;-70
2022/05/25 10:23:05;;;;;;;1.45;1.33;;;15.10;99.90;;;;;;5014680;28;20387;-69
2022/05/25 10:25:52;;;;;;;0.30;0.30;;;15.10;99.90;;;;;;5020942;28;20053;-69
2022/05/25 10:28:35;;;;;;;0.00;0.00;;;15.20;99.90;;;;;;5017304;28;20040;-69
2022/05/25 10:37:18;;;;;;;0.30;0.30;;;16.00;99.90;;;;;;5019344;28;20045;-68
2022/05/25 10:39:57;;;;;;;0.10;0.10;;;16.30;99.90;;;;;;5023321;28;20062;-68
2022/05/25 10:42:45;;;;;;;0.17;0.17;;;16.40;99.90;;;;;;5028470;28;20041;-68
2022/05/25 10:45:18;;;;;;;0.10;0.10;;;16.20;99.90;;;;;;5027513;28;20091;-69
2022/05/25 10:47:50;;;;;;;0.00;0.00;;;16.00;99.90;;;;;;5015945;28;20121;-69
2022/05/25 10:50:25;;;;;;;0.15;0.15;;;16.00;99.90;;;;;;5020097;28;20060;-69
2022/05/25 10:53:01;;;;;;;0.10;0.10;;;15.90;99.90;;;;;;5027445;28;20099;-68
2022/05/25 10:55:34;;;;;;;0.90;0.57;;;16.00;99.90;;;;;;5028945;28;20111;-69
2022/05/25 10:58:29;;;;;;;0.77;0.37;;;16.10;99.90;;;;;;5029056;28;20099;-69
2022/05/25 11:01:16;;;;;;;1.00;0.95;;;16.40;99.90;;;;;;5014618;28;20091;-69
2022/05/25 11:04:18;;;;;;;1.75;0.88;;;16.90;99.90;;;;;;5012919;28;20583;-67
2022/05/25 11:07:16;;;;;;;0.10;0.10;;;17.20;99.90;;;;;;5008908;28;20068;-68
2022/05/25 11:09:48;;;;;;;0.00;0.00;;;17.60;99.90;;;;;;5015629;28;20045;-69
2022/05/25 11:12:51;;;;;;;0.70;0.70;;;17.90;99.90;;;;;;5011206;28;20064;-69
2022/05/25 11:15:40;;;;;;;0.00;0.00;;;18.00;99.90;;;;;;5025639;28;20170;-68
2022/05/25 11:18:43;;;;;;;0.10;0.10;;;18.10;99.90;;;;;;5025972;28;20038;-69
2022/05/25 11:21:43;;;;;;;0.10;0.10;;;18.30;99.90;;;;;;5018691;28;20402;-68
2022/05/25 11:24:21;;;;;;;0.10;0.10;;;18.20;99.90;;;;;;5007547;28;20046;-68
2022/05/25 11:27:05;;;;;;;0.20;0.20;;;18.00;99.90;;;;;;5012854;28;20117;-68
2022/05/25 11:29:53;;;;;;;0.32;0.32;;;18.10;99.90;;;;;;5009599;28;20068;-69
2022/05/25 11:32:45;;;;;;;5.90;0.70;;;18.10;99.90;;;;;;5011723;28;20045;-68
2022/05/25 11:35:39;;;;;;;0.15;0.15;;;18.00;99.90;;;;;;5014694;28;20045;-69
2022/05/25 11:38:33;;;;;;;0.00;0.00;;;18.20;99.90;;;;;;5021641;28;20075;-68
2022/05/25 11:40:58;;;;;;;;;;;18.20;99.90;;;;;;5027497;28;20056;-70
2022/05/25 11:43:50;;;;;;;0.00;0.00;;;18.00;99.90;;;;;;5029259;28;20355;-69
2022/05/25 11:46:39;;;;;;;0.00;0.00;;;18.00;99.90;;;;;;5013845;28;20054;-70
2022/05/25 11:49:43;;;;;;;0.00;0.00;;;18.10;99.90;;;;;;5011887;28;20924;-68
2022/05/25 11:52:26;;;;;;;0.00;0.00;;;18.10;99.90;;;;;;5024940;28;20505;-69
2022/05/25 11:54:57;;;;;;;0.10;0.10;;;18.00;99.90;;;;;;5026535;28;20081;-68
2022/05/25 11:57:39;;;;;;;0.90;0.20;;;17.90;99.90;;;;;;5016035;28;20049;-69
2022/05/25 12:00:48;;;;;;;0.10;0.10;;;17.90;99.90;;;;;;5009043;28;20060;-69
2022/05/25 12:04:04;;;;;;;0.10;0.10;;;17.80;99.90;;;;;;5019934;28;20088;-70
2022/05/25 12:06:58;;;;;;;0.00;0.00;;;17.80;99.90;;;;;;5008995;28;20049;-70
2022/05/25 12:09:33;;;;;;;;;;;17.80;99.90;;;;;;5013465;28;20045;-69
2022/05/25 12:12:27;;;;;;;0.00;0.00;;;17.70;99.90;;;;;;5015125;28;20385;-69
2022/05/25 12:15:22;;;;;;;0.00;0.00;;;17.70;99.90;;;;;;5019956;28;20060;-70
2022/05/25 12:18:30;;;;;;;0.10;0.10;;;17.80;99.90;;;;;;5022175;28;20048;-70
2022/05/25 12:21:10;;;;;;;3.83;1.42;;;17.80;99.90;;;;;;5019817;28;20079;-70
2022/05/25 12:23:40;;;;;;;3.72;0.32;;;17.70;99.90;;;;;;5027038;28;20045;-70
2022/05/25 12:26:17;;;;;;;0.10;0.10;;;17.70;99.90;;;;;;5028417;28;20060;-70
2022/05/25 12:28:45;;;;;;;0.00;0.00;;;17.70;99.90;;;;;;5023620;28;20508;-70
2022/05/25 12:31:19;;;;;;;0.15;0.15;;;17.90;99.90;;;;;;5013910;28;20065;-70
2022/05/25 12:33:46;;;;;;;0.00;0.00;;;17.80;99.90;;;;;;5027377;28;20041;-70
2022/05/25 12:36:12;;;;;;;0.00;0.00;;;17.70;99.90;;;;;;5025488;28;20034;-69
2022/05/25 12:38:39;;;;;;;0.28;0.28;;;17.50;99.90;;;;;;5008079;28;20450;-70
2022/05/25 12:41:30;;;;;;;0.10;0.10;;;17.30;99.90;;;;;;5013691;28;20061;-70
2022/05/25 12:48:30;;;;;;;0.10;0.10;;;17.20;99.90;;;;;;5018238;28;20046;-70
2022/05/25 12:49:42;;;;;;;0.10;0.10;;;17.40;99.90;;;;;;5025330;28;20061;-71
2022/05/25 12:52:26;;;;;;;0.43;0.30;;;17.50;99.90;;;;;;5018674;28;20054;-71
2022/05/25 12:55:13;;;;;;;0.47;0.47;;;17.50;99.90;;;;;;5025454;28;20144;-70
2022/05/25 12:57:51;;;;;;;0.20;0.20;;;17.40;99.90;;;;;;5013798;28;20489;-70
2022/05/25 13:00:33;;;;;;;0.00;0.00;;;17.30;99.90;;;;;;5008466;28;20057;-70
2022/05/25 13:03:13;;;;;;;0.25;0.25;;;17.30;99.90;;;;;;5027245;28;20066;-71
2022/05/25 13:05:57;;;;;;;0.10;0.10;;;17.20;99.90;;;;;;5017165;28;20180;-69
2022/05/25 13:08:51;;;;;;;0.10;0.10;;;17.10;99.90;;;;;;5019659;28;20504;-69
2022/05/25 13:11:36;;;;;;;0.00;0.00;;;17.20;99.90;;;;;;5023762;28;20050;-70
2022/05/25 13:14:16;;;;;;;0.03;0.03;;;17.10;99.90;;;;;;5026803;28;20053;-70
2022/05/25 13:16:48;;;;;;;0.00;0.00;;;17.10;99.90;;;;;;5025442;28;20053;-70
2022/05/25 13:19:33;;;;;;;0.10;0.10;;;17.20;99.90;;;;;;5008068;28;20050;-70
2022/05/25 13:22:10;;;;;;;4.47;1.13;;;17.20;99.90;;;;;;5012114;28;20085;-70
2022/05/25 13:24:54;;;;;;;0.00;0.00;;;17.30;99.90;;;;;;5018603;28;20432;-70
2022/05/25 13:27:43;;;;;;;0.00;0.00;;;17.30;99.90;;;;;;5019488;28;20038;-70
2022/05/25 13:30:23;;;;;;;13.52;0.50;;;17.40;99.90;;;;;;5031643;28;20049;-69
2022/05/25 13:32:58;;;;;;;0.00;0.00;;;17.40;99.90;;;;;;5019254;28;20046;-69
2022/05/25 13:35:27;;;;;;;0.00;0.00;;;17.40;99.90;;;;;;5010804;28;20030;-69
2022/05/25 13:38:03;;;;;;;0.00;0.00;;;17.30;99.90;;;;;;5011601;28;20049;-69
2022/05/25 13:40:35;;;;;;;0.65;0.55;;;17.20;99.90;;;;;;5009918;28;20069;-69
2022/05/25 13:43:02;;;;;;;1.35;1.17;;;17.10;99.90;;;;;;5024645;28;20067;-69
2022/05/25 13:45:29;;;;;;;0.00;0.00;;;17.10;99.90;;;;;;5011502;28;20053;-69
2022/05/25 13:47:58;;;;;;;0.00;0.00;;;17.20;99.90;;;;;;5027037;28;20084;-69